Time;durP1;ratioP1;P1;durP2;ratioP2;P2;SDS_P1;SDS_P2;PMS_P1;PMS_P2;Temp;Humidity;BMP_temperature;BMP_pressure;BME280_temperature;BME280_humidity;BME280_pressure;Samples;Min_cycle;Max_cycle;Signal;HPM_P1;HPM_P2
2022/06/14 00:01:15;;;;;;;9.60;3.58;;;;;;;;;;4955731;28;20050;-76
2022/06/14 00:03:42;;;;;;;11.82;3.92;;;;;;;;;;4956194;28;20038;-76
2022/06/14 00:06:19;;;;;;;10.57;4.10;;;;;;;;;;4972764;28;20050;-76
2022/06/14 00:08:45;;;;;;;11.95;4.20;;;;;;;;;;4956171;28;20616;-76
2022/06/14 00:11:16;;;;;;;8.48;3.85;;;;;;;;;;4972863;28;20042;-76
2022/06/14 00:13:42;;;;;;;11.20;4.32;;;;;;;;;;4939922;28;20042;-76
2022/06/14 00:16:09;;;;;;;10.30;4.15;;;;;;;;;;4955388;28;20043;-76
2022/06/14 00:18:35;;;;;;;11.63;3.95;;;;;;;;;;4972930;28;20056;-76
2022/06/14 00:21:01;;;;;;;14.75;4.00;;;;;;;;;;4972850;28;20483;-76
2022/06/14 00:23:28;;;;;;;6.88;3.78;;;;;;;;;;4939661;28;20044;-76
2022/06/14 00:25:55;;;;;;;12.93;3.80;;;;;;;;;;4954575;28;20491;-76
2022/06/14 00:28:22;;;;;;;8.55;3.22;;;;;;;;;;4955556;28;20407;-76
2022/06/14 00:30:49;;;;;;;11.02;3.88;;;;;;;;;;4956377;28;20042;-76
2022/06/14 00:33:16;;;;;;;14.70;4.22;;;;;;;;;;4972442;28;20043;-76
2022/06/14 00:35:42;;;;;;;11.80;4.05;;;;;;;;;;4939781;28;20039;-76
2022/06/14 00:38:10;;;;;;;7.90;3.53;;;;;;;;;;4955343;28;20049;-76
2022/06/14 00:40:37;;;;;;;8.52;3.65;;;;;;;;;;4955986;28;20073;-76
2022/06/14 00:43:05;;;;;;;10.55;4.40;;;;;;;;;;4955266;28;20046;-67
2022/06/14 00:45:31;;;;;;;8.65;3.83;;;;;;;;;;4972794;28;20125;-67
2022/06/14 00:48:03;;;;;;;10.93;4.15;;;;;;;;;;4971931;28;20042;-67
2022/06/14 00:50:35;;;;;;;9.27;3.70;;;;;;;;;;4972957;28;20046;-67
2022/06/14 00:53:01;;;;;;;10.30;3.70;;;;;;;;;;4955410;28;20042;-68
2022/06/14 00:55:34;;;;;;;11.70;4.03;;;;;;;;;;4939444;28;20062;-68
2022/06/14 00:58:08;;;;;;;11.68;4.00;;;;;;;;;;4955494;28;20480;-67
2022/06/14 01:00:36;;;;;;;10.05;4.32;;;;;;;;;;4955640;28;20062;-76
2022/06/14 01:03:07;;;;;;;11.80;4.20;;;;;;;;;;4954959;28;20117;-76
2022/06/14 01:06:06;;;;;;;8.50;3.83;;;;;;;;;;4959317;28;20526;-75
2022/06/14 01:08:38;;;;;;;11.07;3.72;;;;;;;;;;4959105;28;20192;-76
2022/06/14 01:11:05;;;;;;;11.48;4.30;;;;;;;;;;4958803;28;20034;-76
2022/06/14 01:13:31;;;;;;;11.82;3.55;;;;;;;;;;4958920;28;20035;-76
2022/06/14 01:15:57;;;;;;;9.52;4.20;;;;;;;;;;4959215;28;20041;-76
2022/06/14 01:18:24;;;;;;;9.35;3.63;;;;;;;;;;4975754;28;20105;-76
2022/06/14 01:20:50;;;;;;;9.02;4.30;;;;;;;;;;4974821;28;20039;-76
2022/06/14 01:23:17;;;;;;;9.70;3.90;;;;;;;;;;4958637;28;20047;-76
2022/06/14 01:25:45;;;;;;;8.45;3.67;;;;;;;;;;4959018;28;20046;-76
2022/06/14 01:28:11;;;;;;;8.70;3.40;;;;;;;;;;4958485;28;20050;-77
2022/06/14 01:30:45;;;;;;;9.73;3.85;;;;;;;;;;4976349;28;20031;-76
2022/06/14 01:33:25;;;;;;;8.77;3.50;;;;;;;;;;4976291;28;20486;-76
2022/06/14 01:35:53;;;;;;;12.30;3.80;;;;;;;;;;4976020;28;20131;-76
2022/06/14 01:38:19;;;;;;;11.95;3.92;;;;;;;;;;4975905;28;20038;-76
2022/06/14 01:40:46;;;;;;;9.80;3.67;;;;;;;;;;4976186;28;20047;-76
2022/06/14 01:43:25;;;;;;;7.82;3.88;;;;;;;;;;4958401;28;20035;-76
2022/06/14 01:46:03;;;;;;;11.50;3.95;;;;;;;;;;4958522;28;20057;-76
2022/06/14 01:48:50;;;;;;;7.25;3.85;;;;;;;;;;4976128;28;20403;-76
2022/06/14 01:54:13;;;;;;;10.75;3.75;;;;;;;;;;4965352;28;20046;-67
2022/06/14 01:56:39;;;;;;;12.27;3.70;;;;;;;;;;4958135;28;20106;-67
2022/06/14 01:59:05;;;;;;;11.25;3.58;;;;;;;;;;4958421;28;20046;-67
2022/06/14 02:01:40;;;;;;;11.60;3.88;;;;;;;;;;4965816;28;20495;-68
2022/06/14 02:06:57;;;;;;;7.68;3.53;;;;;;;;;;4970896;28;20055;-76
2022/06/14 02:09:29;;;;;;;10.52;3.65;;;;;;;;;;4957846;28;20118;-75
2022/06/14 02:11:57;;;;;;;7.22;2.97;;;;;;;;;;4957871;28;20077;-76
2022/06/14 02:14:26;;;;;;;9.98;3.47;;;;;;;;;;4975034;28;20042;-76
2022/06/14 02:17:08;;;;;;;10.13;3.78;;;;;;;;;;4975079;28;20101;-76
2022/06/14 02:19:44;;;;;;;10.35;3.60;;;;;;;;;;4975443;28;20105;-76
2022/06/14 02:22:13;;;;;;;9.55;3.67;;;;;;;;;;4975157;28;20062;-76
2022/06/14 02:24:43;;;;;;;8.65;3.33;;;;;;;;;;4958016;28;20113;-76
2022/06/14 02:27:15;;;;;;;10.43;3.60;;;;;;;;;;4957205;28;20047;-76
2022/06/14 02:29:44;;;;;;;8.88;3.33;;;;;;;;;;4951447;28;20450;-76
2022/06/14 02:32:28;;;;;;;12.10;3.03;;;;;;;;;;4957622;28;20038;-76
2022/06/14 02:35:06;;;;;;;11.40;3.60;;;;;;;;;;4975531;28;20046;-76
2022/06/14 02:37:35;;;;;;;12.07;3.88;;;;;;;;;;4957720;28;20069;-75
2022/06/14 02:40:08;;;;;;;10.90;4.72;;;;;;;;;;4975354;28;20043;-75
2022/06/14 02:42:37;;;;;;;12.82;3.92;;;;;;;;;;4957520;28;20050;-75
2022/06/14 02:45:21;;;;;;;10.93;4.25;;;;;;;;;;4974915;28;20057;-75
2022/06/14 02:47:51;;;;;;;13.77;4.30;;;;;;;;;;4957019;28;20082;-75
2022/06/14 02:50:21;;;;;;;11.68;3.83;;;;;;;;;;4957835;28;20543;-76
2022/06/14 02:52:56;;;;;;;15.20;4.63;;;;;;;;;;4975122;28;20510;-67
2022/06/14 02:55:26;;;;;;;15.65;4.30;;;;;;;;;;4973807;28;20388;-68
2022/06/14 02:57:58;;;;;;;12.15;4.22;;;;;;;;;;4974331;28;20050;-68
2022/06/14 03:00:45;;;;;;;9.90;4.15;;;;;;;;;;4973510;28;20038;-67
2022/06/14 03:03:18;;;;;;;8.38;4.20;;;;;;;;;;4974729;28;20097;-75
2022/06/14 03:05:48;;;;;;;10.63;4.40;;;;;;;;;;4956947;28;20408;-75
2022/06/14 03:08:17;;;;;;;12.95;4.50;;;;;;;;;;4956877;28;20054;-75
2022/06/14 03:10:56;;;;;;;8.15;4.20;;;;;;;;;;4974551;28;20408;-75
2022/06/14 03:13:28;;;;;;;8.10;4.00;;;;;;;;;;4974150;28;20050;-75
2022/06/14 03:16:03;;;;;;;13.95;4.72;;;;;;;;;;4957087;28;20046;-75
2022/06/14 03:19:04;;;;;;;10.30;4.22;;;;;;;;;;4956741;28;20043;-75
2022/06/14 03:21:30;;;;;;;12.13;4.13;;;;;;;;;;4914283;29;20428;-75
2022/06/14 03:24:06;;;;;;;13.38;5.22;;;;;;;;;;4951836;28;20053;-75
2022/06/14 03:26:37;;;;;;;10.95;4.88;;;;;;;;;;4955571;28;20089;-75
2022/06/14 03:29:06;;;;;;;8.00;4.32;;;;;;;;;;4957032;28;20043;-75
2022/06/14 03:31:38;;;;;;;12.35;3.90;;;;;;;;;;4957435;28;20039;-75
2022/06/14 03:34:32;;;;;;;9.98;4.13;;;;;;;;;;4974590;28;20502;-75
2022/06/14 03:36:58;;;;;;;9.57;4.35;;;;;;;;;;4941057;28;20078;-75
2022/06/14 03:39:29;;;;;;;9.07;4.25;;;;;;;;;;4973969;28;20043;-75
2022/06/14 03:41:57;;;;;;;7.93;3.70;;;;;;;;;;4973832;28;20043;-75
2022/06/14 03:44:26;;;;;;;12.70;4.60;;;;;;;;;;4956576;28;20046;-75
2022/06/14 03:47:12;;;;;;;8.57;3.63;;;;;;;;;;4956706;28;20054;-75
2022/06/14 03:49:41;;;;;;;10.68;4.00;;;;;;;;;;4956940;28;20530;-75
2022/06/14 03:52:18;;;;;;;6.60;3.75;;;;;;;;;;4974153;28;20049;-75
2022/06/14 03:54:49;;;;;;;8.50;3.97;;;;;;;;;;4973890;28;20097;-75
2022/06/14 03:57:30;;;;;;;11.65;3.97;;;;;;;;;;4956620;28;20047;-75
2022/06/14 04:00:14;;;;;;;10.63;4.20;;;;;;;;;;4956670;28;20610;-75
2022/06/14 04:02:55;;;;;;;11.10;3.90;;;;;;;;;;4966408;28;20518;-75
2022/06/14 04:05:40;;;;;;;9.85;3.95;;;;;;;;;;4973451;28;20046;-75
2022/06/14 04:08:24;;;;;;;9.57;3.95;;;;;;;;;;4973355;28;20129;-75
2022/06/14 04:10:59;;;;;;;6.43;3.92;;;;;;;;;;4956842;28;20077;-75
2022/06/14 04:13:34;;;;;;;8.70;4.13;;;;;;;;;;4950484;28;20487;-75
2022/06/14 04:16:04;;;;;;;10.65;3.90;;;;;;;;;;4973908;28;20050;-75
2022/06/14 04:18:38;;;;;;;8.73;4.15;;;;;;;;;;4955797;28;20039;-75
2022/06/14 04:21:14;;;;;;;9.88;4.03;;;;;;;;;;4973386;28;20090;-75
2022/06/14 04:23:55;;;;;;;9.38;3.60;;;;;;;;;;4955506;28;20062;-75
2022/06/14 04:26:39;;;;;;;9.18;4.20;;;;;;;;;;4956502;28;20054;-75
2022/06/14 04:29:12;;;;;;;7.15;3.85;;;;;;;;;;4939930;28;20051;-75
2022/06/14 04:31:41;;;;;;;10.55;3.92;;;;;;;;;;4973564;28;20043;-75
2022/06/14 04:34:15;;;;;;;6.35;3.67;;;;;;;;;;4956288;28;20511;-76
2022/06/14 04:36:57;;;;;;;8.27;3.33;;;;;;;;;;4973594;28;20047;-75
2022/06/14 04:39:26;;;;;;;6.57;3.40;;;;;;;;;;4955888;28;20121;-75
2022/06/14 04:42:03;;;;;;;6.80;2.97;;;;;;;;;;4955329;28;20053;-75
2022/06/14 04:44:39;;;;;;;6.68;2.88;;;;;;;;;;4939460;28;20042;-75
2022/06/14 04:47:08;;;;;;;7.72;3.17;;;;;;;;;;4955909;28;20043;-75
2022/06/14 04:49:35;;;;;;;8.70;3.28;;;;;;;;;;4939729;28;20047;-75
2022/06/14 04:52:04;;;;;;;8.00;3.17;;;;;;;;;;4973356;28;20049;-75
2022/06/14 04:54:30;;;;;;;8.38;3.50;;;;;;;;;;4955418;28;20047;-75
2022/06/14 04:57:03;;;;;;;7.55;3.00;;;;;;;;;;4956491;28;20398;-75
2022/06/14 04:59:35;;;;;;;6.38;3.20;;;;;;;;;;4955731;28;20066;-75
2022/06/14 05:02:05;;;;;;;5.50;2.85;;;;;;;;;;4977904;28;20046;-68
2022/06/14 05:04:36;;;;;;;10.13;3.40;;;;;;;;;;4988656;28;20558;-68
2022/06/14 05:07:09;;;;;;;5.00;2.40;;;;;;;;;;4955748;28;20138;-68
2022/06/14 05:09:38;;;;;;;6.03;2.50;;;;;;;;;;4938590;28;20043;-69
2022/06/14 05:12:13;;;;;;;6.28;2.53;;;;;;;;;;4937269;28;20070;-69
2022/06/14 05:14:44;;;;;;;6.13;2.55;;;;;;;;;;4951624;28;20096;-75
2022/06/14 05:17:14;;;;;;;7.88;2.42;;;;;;;;;;4953470;28;20388;-75
2022/06/14 05:19:40;;;;;;;6.45;2.38;;;;;;;;;;4958143;28;20082;-75
2022/06/14 05:22:08;;;;;;;7.40;2.33;;;;;;;;;;4970738;28;20043;-76
2022/06/14 05:24:35;;;;;;;5.90;2.28;;;;;;;;;;4953293;28;20105;-76
2022/06/14 05:27:13;;;;;;;5.85;2.22;;;;;;;;;;4937529;28;20047;-75
2022/06/14 05:29:58;;;;;;;5.72;2.40;;;;;;;;;;4951573;28;20047;-75
2022/06/14 05:32:30;;;;;;;6.82;2.03;;;;;;;;;;4955311;28;20051;-77
2022/06/14 05:34:59;;;;;;;5.35;2.00;;;;;;;;;;4939293;28;20034;-76
2022/06/14 05:37:37;;;;;;;6.53;1.95;;;;;;;;;;4956023;28;20082;-76
2022/06/14 05:40:06;;;;;;;6.70;2.10;;;;;;;;;;4972339;28;20600;-76
2022/06/14 05:42:35;;;;;;;6.75;2.08;;;;;;;;;;4954771;28;20042;-76
2022/06/14 05:45:03;;;;;;;8.88;2.28;;;;;;;;;;4955264;28;20541;-76
2022/06/14 05:47:37;;;;;;;7.85;2.30;;;;;;;;;;4972345;28;20046;-76
2022/06/14 05:50:06;;;;;;;5.47;1.90;;;;;;;;;;4955916;28;20046;-83
2022/06/14 05:52:34;;;;;;;7.45;1.85;;;;;;;;;;4942476;28;20050;-83
2022/06/14 05:55:16;;;;;;;6.70;2.10;;;;;;;;;;4958412;28;20061;-83
2022/06/14 05:57:55;;;;;;;6.57;1.90;;;;;;;;;;4958166;28;20054;-74
2022/06/14 06:00:30;;;;;;;8.35;2.05;;;;;;;;;;4958162;28;20623;-69
2022/06/14 06:20:09;;;;;;;7.78;1.60;;;;;;;;;;4963999;23;20054;-71
2022/06/14 06:22:42;;;;;;;7.95;1.98;;;;;;;;;;4949996;28;20070;-70
2022/06/14 06:25:11;;;;;;;6.70;1.75;;;;;;;;;;4965216;28;20558;-71
2022/06/14 06:27:48;;;;;;;5.55;1.55;;;;;;;;;;4957210;28;20101;-71
2022/06/14 06:30:20;;;;;;;3.67;1.30;;;;;;;;;;4957450;28;20101;-71
2022/06/14 06:32:46;;;;;;;8.73;1.77;;;;;;;;;;4957617;28;20495;-70
2022/06/14 06:35:13;;;;;;;4.97;1.50;;;;;;;;;;4974145;28;20038;-72
2022/06/14 06:37:42;;;;;;;6.88;1.60;;;;;;;;;;4957269;28;20050;-71
2022/06/14 06:40:14;;;;;;;4.38;1.30;;;;;;;;;;4945150;28;20503;-72
2022/06/14 06:43:07;;;;;;;6.57;1.50;;;;;;;;;;4956763;28;20050;-71
2022/06/14 06:45:36;;;;;;;7.78;1.75;;;;;;;;;;4953864;28;20468;-71
2022/06/14 06:48:11;;;;;;;5.50;1.70;;;;;;;;;;4957350;28;20035;-72
2022/06/14 06:50:40;;;;;;;8.23;1.85;;;;;;;;;;4956610;28;20079;-71
2022/06/14 06:53:15;;;;;;;6.15;2.00;;;;;;;;;;4968275;28;20089;-72
2022/06/14 06:55:44;;;;;;;6.40;2.10;;;;;;;;;;4945568;28;20046;-73
2022/06/14 06:58:13;;;;;;;4.38;1.67;;;;;;;;;;4956970;28;20125;-72
2022/06/14 07:00:40;;;;;;;5.75;1.45;;;;;;;;;;4954407;28;20442;-72
2022/06/14 07:03:21;;;;;;;5.80;1.52;;;;;;;;;;4954862;28;20057;-73
2022/06/14 07:05:50;;;;;;;5.25;1.48;;;;;;;;;;4954224;28;20589;-73
2022/06/14 07:08:19;;;;;;;4.70;1.45;;;;;;;;;;4972320;28;20151;-71
2022/06/14 07:10:49;;;;;;;5.85;1.33;;;;;;;;;;4955005;28;20038;-71
2022/06/14 07:13:15;;;;;;;5.65;1.58;;;;;;;;;;4955655;28;20602;-73
2022/06/14 07:15:44;;;;;;;6.70;1.65;;;;;;;;;;4939292;28;20039;-72
2022/06/14 07:18:18;;;;;;;2.78;1.20;;;;;;;;;;4956604;28;20046;-73
2022/06/14 07:21:04;;;;;;;3.95;1.10;;;;;;;;;;4973590;28;20129;-71
2022/06/14 07:23:42;;;;;;;5.82;1.60;;;;;;;;;;4956775;28;20066;-72
2022/06/14 07:26:20;;;;;;;5.85;1.98;;;;;;;;;;4956632;28;20116;-72
2022/06/14 07:28:52;;;;;;;5.57;1.67;;;;;;;;;;4955838;28;20479;-72
2022/06/14 07:31:22;;;;;;;4.72;1.48;;;;;;;;;;4974173;28;20074;-70
2022/06/14 07:33:48;;;;;;;4.75;1.63;;;;;;;;;;4973578;28;20043;-70
2022/06/14 07:36:18;;;;;;;4.20;1.30;;;;;;;;;;4973682;28;20038;-71
2022/06/14 07:39:08;;;;;;;5.82;1.70;;;;;;;;;;4955569;28;20493;-72
2022/06/14 07:41:43;;;;;;;3.47;1.40;;;;;;;;;;4940870;28;20451;-71
2022/06/14 07:44:16;;;;;;;6.63;1.75;;;;;;;;;;4956485;28;20434;-70
2022/06/14 07:46:55;;;;;;;4.80;1.20;;;;;;;;;;4955978;28;20133;-72
2022/06/14 07:49:29;;;;;;;3.80;1.15;;;;;;;;;;4950385;28;20395;-76
2022/06/14 07:51:58;;;;;;;4.85;1.48;;;;;;;;;;4960913;28;20043;-74
2022/06/14 07:54:28;;;;;;;4.05;1.30;;;;;;;;;;4962047;28;20047;-75
2022/06/14 07:57:12;;;;;;;3.40;1.30;;;;;;;;;;4956006;28;20053;-73
2022/06/14 07:59:41;;;;;;;5.07;1.40;;;;;;;;;;4955941;28;20037;-70
2022/06/14 08:02:13;;;;;;;3.08;1.25;;;;;;;;;;4956036;28;20035;-69
2022/06/14 08:04:45;;;;;;;4.28;1.20;;;;;;;;;;4954819;28;20045;-70
2022/06/14 08:07:13;;;;;;;5.55;1.67;;;;;;;;;;4955678;28;20452;-69
2022/06/14 08:09:43;;;;;;;5.53;1.50;;;;;;;;;;4973286;28;20051;-69
2022/06/14 08:12:14;;;;;;;5.75;1.20;;;;;;;;;;4942314;28;20034;-71
2022/06/14 08:15:01;;;;;;;7.35;1.30;;;;;;;;;;4956203;28;20054;-70
2022/06/14 08:17:36;;;;;;;4.70;1.60;;;;;;;;;;4954883;28;20043;-70
2022/06/14 08:20:08;;;;;;;5.88;1.73;;;;;;;;;;4955764;28;20054;-72
2022/06/14 08:22:37;;;;;;;4.75;1.42;;;;;;;;;;4956076;28;20050;-72
2022/06/14 08:25:07;;;;;;;5.78;1.65;;;;;;;;;;4955535;28;20081;-72
2022/06/14 08:27:37;;;;;;;4.75;1.77;;;;;;;;;;4955457;28;20070;-70
2022/06/14 08:30:06;;;;;;;4.50;1.48;;;;;;;;;;4953279;28;20047;-72
2022/06/14 08:32:32;;;;;;;3.83;1.20;;;;;;;;;;4952900;28;20046;-72
2022/06/14 08:35:12;;;;;;;4.03;1.30;;;;;;;;;;4939672;28;20043;-70
2022/06/14 08:37:45;;;;;;;4.55;1.30;;;;;;;;;;4955215;28;20093;-72
2022/06/14 08:40:11;;;;;;;4.88;1.20;;;;;;;;;;4939606;28;20615;-70
2022/06/14 08:42:40;;;;;;;5.57;1.30;;;;;;;;;;4955510;28;20074;-75
2022/06/14 08:45:13;;;;;;;4.85;1.40;;;;;;;;;;4939085;28;20082;-74
2022/06/14 08:47:43;;;;;;;3.97;1.58;;;;;;;;;;4954668;28;20049;-69
2022/06/14 08:50:24;;;;;;;3.75;1.27;;;;;;;;;;4955583;28;20061;-74
2022/06/14 08:53:06;;;;;;;5.35;1.67;;;;;;;;;;4954861;28;20081;-75
2022/06/14 08:55:46;;;;;;;3.50;1.23;;;;;;;;;;4953968;28;20105;-77
2022/06/14 08:58:22;;;;;;;4.18;1.45;;;;;;;;;;4955302;28;20410;-74
2022/06/14 09:01:00;;;;;;;6.78;1.45;;;;;;;;;;4955540;28;20039;-74
2022/06/14 09:03:29;;;;;;;3.13;1.10;;;;;;;;;;4926369;28;20039;-72
2022/06/14 09:05:58;;;;;;;6.32;1.13;;;;;;;;;;4954071;28;20511;-73
2022/06/14 09:08:51;;;;;;;5.60;1.10;;;;;;;;;;4954923;28;20407;-73
2022/06/14 09:11:23;;;;;;;3.60;1.27;;;;;;;;;;4955019;28;20045;-72
2022/06/14 09:14:18;;;;;;;4.20;1.10;;;;;;;;;;4954799;28;20045;-74
2022/06/14 09:16:52;;;;;;;3.45;1.08;;;;;;;;;;4918190;28;20555;-69
2022/06/14 09:19:43;;;;;;;3.03;0.80;;;;;;;;;;4939595;28;20447;-73
2022/06/14 09:22:10;;;;;;;2.65;1.00;;;;;;;;;;4954973;28;20045;-71
2022/06/14 09:24:36;;;;;;;2.75;1.00;;;;;;;;;;4958758;28;20173;-78
2022/06/14 09:27:15;;;;;;;2.75;1.00;;;;;;;;;;4977753;28;20113;-78
2022/06/14 09:29:44;;;;;;;2.72;0.70;;;;;;;;;;4961906;28;20043;-78
2022/06/14 09:32:10;;;;;;;1.80;0.80;;;;;;;;;;4976725;28;20038;-71
2022/06/14 09:35:15;;;;;;;1.73;0.90;;;;;;;;;;4977024;28;20046;-77
2022/06/14 09:38:04;;;;;;;2.00;0.70;;;;;;;;;;4900712;29;20457;-76
2022/06/14 09:40:56;;;;;;;3.03;0.70;;;;;;;;;;4911040;29;20090;-71
2022/06/14 09:43:36;;;;;;;4.15;1.45;;;;;;;;;;4936536;28;20042;-71
2022/06/14 09:46:11;;;;;;;2.67;1.00;;;;;;;;;;4969011;28;20050;-72
2022/06/14 09:48:37;;;;;;;;;;;;;;;;;;4978521;28;20042;-71
2022/06/14 09:51:22;;;;;;;4.78;1.27;;;;;;;;;;4978205;28;20374;-76
2022/06/14 09:53:53;;;;;;;3.47;1.30;;;;;;;;;;4973165;28;20049;-77
2022/06/14 09:56:37;;;;;;;3.25;1.20;;;;;;;;;;4974440;28;20046;-76
2022/06/14 09:59:09;;;;;;;4.32;1.20;;;;;;;;;;4958882;28;20080;-76
2022/06/14 10:01:50;;;;;;;3.33;1.10;;;;;;;;;;4995329;28;20085;-76
2022/06/14 10:04:19;;;;;;;3.85;1.30;;;;;;;;;;4960514;28;20053;-71
2022/06/14 10:07:01;;;;;;;3.30;1.27;;;;;;;;;;4976896;28;20173;-71
2022/06/14 10:09:30;;;;;;;3.78;1.27;;;;;;;;;;4959680;28;20133;-71
2022/06/14 10:11:59;;;;;;;5.07;1.33;;;;;;;;;;4991412;28;20335;-75
2022/06/14 10:14:25;;;;;;;2.78;1.30;;;;;;;;;;4976636;28;20388;-75
2022/06/14 10:17:10;;;;;;;4.30;1.42;;;;;;;;;;4977381;28;20431;-75
2022/06/14 10:19:48;;;;;;;4.87;1.40;;;;;;;;;;4960058;28;20074;-71
2022/06/14 10:22:20;;;;;;;4.38;1.10;;;;;;;;;;4957572;28;20526;-75
2022/06/14 10:24:59;;;;;;;4.80;1.20;;;;;;;;;;4949981;28;20042;-72
2022/06/14 10:30:39;;;;;;;3.65;1.10;;;;;;;;;;4957116;28;20086;-71
2022/06/14 10:33:12;;;;;;;3.67;1.10;;;;;;;;;;4955842;28;20730;-72
2022/06/14 10:35:45;;;;;;;2.70;1.05;;;;;;;;;;4982414;28;20042;-71
2022/06/14 10:38:26;;;;;;;3.55;1.30;;;;;;;;;;4963888;28;20049;-71
2022/06/14 10:41:03;;;;;;;2.33;0.90;;;;;;;;;;4962769;28;20042;-71
2022/06/14 10:43:53;;;;;;;4.05;1.10;;;;;;;;;;4941629;28;20078;-76
2022/06/14 10:46:19;;;;;;;3.10;1.30;;;;;;;;;;4974450;28;20046;-75
2022/06/14 10:48:45;;;;;;;2.60;1.02;;;;;;;;;;4959682;28;20054;-76
2022/06/14 10:51:21;;;;;;;4.97;1.30;;;;;;;;;;4958567;28;20042;-77
2022/06/14 10:54:09;;;;;;;3.90;1.10;;;;;;;;;;4949713;28;20047;-70
2022/06/14 10:56:35;;;;;;;2.33;1.00;;;;;;;;;;4957471;28;20041;-72
2022/06/14 10:59:01;;;;;;;3.97;1.30;;;;;;;;;;4956917;28;20050;-75
2022/06/14 11:01:37;;;;;;;3.47;1.10;;;;;;;;;;4957583;28;20399;-74
2022/06/14 11:04:08;;;;;;;2.75;1.00;;;;;;;;;;4957769;28;20051;-76
2022/06/14 11:06:37;;;;;;;3.97;1.40;;;;;;;;;;4959698;28;20046;-75
2022/06/14 11:09:25;;;;;;;4.03;1.33;;;;;;;;;;4959532;28;20541;-76
2022/06/14 11:12:00;;;;;;;3.47;1.13;;;;;;;;;;4959674;28;20066;-72
2022/06/14 11:14:30;;;;;;;3.90;1.30;;;;;;;;;;4940319;28;20039;-72
2022/06/14 11:17:02;;;;;;;2.75;1.00;;;;;;;;;;4957116;28;20057;-72
2022/06/14 11:19:31;;;;;;;3.28;1.20;;;;;;;;;;4957046;28;20066;-72
2022/06/14 11:22:05;;;;;;;4.60;1.20;;;;;;;;;;4976690;28;20047;-71
2022/06/14 11:24:36;;;;;;;2.13;0.98;;;;;;;;;;4959747;28;20096;-71
2022/06/14 11:27:03;;;;;;;3.17;0.98;;;;;;;;;;4961372;28;20039;-77
2022/06/14 11:29:42;;;;;;;3.00;1.25;;;;;;;;;;4976987;28;20058;-72
2022/06/14 11:32:08;;;;;;;2.88;1.08;;;;;;;;;;4976393;28;20053;-72
2022/06/14 11:34:40;;;;;;;2.95;1.10;;;;;;;;;;4973429;28;20053;-73
2022/06/14 11:37:26;;;;;;;3.88;1.08;;;;;;;;;;4964401;28;20487;-73
2022/06/14 11:39:55;;;;;;;4.22;1.30;;;;;;;;;;4959516;28;20463;-72
2022/06/14 11:42:30;;;;;;;2.92;1.00;;;;;;;;;;4975563;28;20043;-71
2022/06/14 11:45:05;;;;;;;2.85;1.08;;;;;;;;;;4974952;28;20045;-73
2022/06/14 11:47:34;;;;;;;2.20;0.95;;;;;;;;;;4975210;28;20039;-73
2022/06/14 11:50:04;;;;;;;2.85;0.98;;;;;;;;;;4960113;28;20522;-71
2022/06/14 11:52:42;;;;;;;3.33;1.08;;;;;;;;;;4973360;28;20126;-73
2022/06/14 11:55:17;;;;;;;2.40;1.10;;;;;;;;;;4990601;28;20045;-75
2022/06/14 11:58:06;;;;;;;3.45;1.35;;;;;;;;;;4976267;28;20087;-75
2022/06/14 12:00:42;;;;;;;4.25;1.42;;;;;;;;;;4976044;28;20050;-76
2022/06/14 12:03:08;;;;;;;3.17;1.30;;;;;;;;;;4972730;28;20573;-75
2022/06/14 12:05:40;;;;;;;3.05;1.20;;;;;;;;;;4974460;28;20046;-75
2022/06/14 12:08:13;;;;;;;4.30;1.25;;;;;;;;;;4965714;28;20041;-72
2022/06/14 12:10:47;;;;;;;5.40;1.40;;;;;;;;;;4973889;28;20054;-76
2022/06/14 12:13:19;;;;;;;2.67;1.10;;;;;;;;;;4974542;28;20121;-76
2022/06/14 12:15:55;;;;;;;3.47;1.10;;;;;;;;;;4976060;28;20566;-76
2022/06/14 12:18:22;;;;;;;3.28;0.90;;;;;;;;;;4974560;28;20084;-73
2022/06/14 12:20:53;;;;;;;3.38;1.10;;;;;;;;;;4955535;28;20043;-75
2022/06/14 12:23:27;;;;;;;3.92;1.35;;;;;;;;;;4955749;28;20050;-73
2022/06/14 12:28:59;;;;;;;3.85;1.50;;;;;;;;;;4968804;28;20047;-71
2022/06/14 12:31:35;;;;;;;3.90;1.20;;;;;;;;;;4966092;28;20058;-71
2022/06/14 12:34:09;;;;;;;3.45;1.20;;;;;;;;;;4954764;28;20085;-75
2022/06/14 12:36:35;;;;;;;3.13;1.10;;;;;;;;;;4951640;28;20079;-70
2022/06/14 12:39:05;;;;;;;4.53;1.33;;;;;;;;;;4966838;28;20093;-70
2022/06/14 12:41:41;;;;;;;2.88;1.10;;;;;;;;;;4953098;28;20047;-71
2022/06/14 12:44:14;;;;;;;3.05;1.00;;;;;;;;;;4950738;28;20050;-71
2022/06/14 12:46:42;;;;;;;3.47;1.15;;;;;;;;;;4970258;28;20487;-72
2022/06/14 12:49:18;;;;;;;2.95;1.23;;;;;;;;;;4970946;28;20086;-75
2022/06/14 12:51:54;;;;;;;3.53;1.27;;;;;;;;;;4972201;28;20131;-74
2022/06/14 12:54:23;;;;;;;3.25;1.25;;;;;;;;;;4970408;28;20047;-74
2022/06/14 12:56:49;;;;;;;3.05;1.17;;;;;;;;;;4968579;28;20495;-75
2022/06/14 12:59:23;;;;;;;2.85;1.00;;;;;;;;;;4972943;28;20043;-75
2022/06/14 13:01:49;;;;;;;2.65;1.20;;;;;;;;;;4959138;28;20039;-76
2022/06/14 13:04:20;;;;;;;2.83;1.20;;;;;;;;;;4977087;28;20027;-76
2022/06/14 13:06:53;;;;;;;3.75;1.20;;;;;;;;;;4975712;28;20049;-76
2022/06/14 13:09:34;;;;;;;5.78;1.48;;;;;;;;;;4975622;28;20046;-76
2022/06/14 13:12:00;;;;;;;2.65;1.23;;;;;;;;;;4976631;28;20039;-76
2022/06/14 13:14:55;;;;;;;4.05;1.33;;;;;;;;;;4976697;28;20038;-75
2022/06/14 13:17:28;;;;;;;3.50;1.30;;;;;;;;;;4950997;28;20097;-70
2022/06/14 13:20:20;;;;;;;6.35;1.55;;;;;;;;;;4975442;28;20407;-71
2022/06/14 13:23:05;;;;;;;2.55;1.10;;;;;;;;;;4955505;28;20051;-76
2022/06/14 13:25:51;;;;;;;2.75;1.30;;;;;;;;;;4958729;28;20125;-76
2022/06/14 13:28:23;;;;;;;2.63;1.30;;;;;;;;;;4959672;28;20035;-76
2022/06/14 13:30:55;;;;;;;3.70;1.33;;;;;;;;;;4955602;28;20046;-76
2022/06/14 13:33:27;;;;;;;3.15;1.15;;;;;;;;;;4957401;28;20045;-76
2022/06/14 13:36:00;;;;;;;4.53;1.20;;;;;;;;;;4959183;28;20039;-75
2022/06/14 13:38:48;;;;;;;4.18;1.25;;;;;;;;;;4958581;28;20047;-76
2022/06/14 13:41:26;;;;;;;4.10;1.33;;;;;;;;;;4976230;28;20667;-76
2022/06/14 13:44:15;;;;;;;3.38;1.30;;;;;;;;;;4950679;28;20046;-77
2022/06/14 13:46:41;;;;;;;3.65;1.25;;;;;;;;;;4958657;28;20047;-75
2022/06/14 13:49:23;;;;;;;4.13;1.23;;;;;;;;;;4957992;28;20391;-76
2022/06/14 13:51:53;;;;;;;3.47;1.20;;;;;;;;;;4949475;28;20495;-75
2022/06/14 13:54:28;;;;;;;3.58;1.33;;;;;;;;;;4960504;28;20039;-76
2022/06/14 13:56:54;;;;;;;;;;;;;;;;;;4958121;28;20499;-75
2022/06/14 13:59:23;;;;;;;2.88;1.00;;;;;;;;;;4973895;28;19951;-75
2022/06/14 14:01:58;;;;;;;3.20;1.25;;;;;;;;;;4942842;28;20046;-75
2022/06/14 14:04:33;;;;;;;3.63;1.25;;;;;;;;;;4958400;28;20047;-76
2022/06/14 14:07:15;;;;;;;3.33;1.40;;;;;;;;;;4958985;28;20049;-75
2022/06/14 14:10:04;;;;;;;3.58;1.40;;;;;;;;;;4958375;28;20169;-75
2022/06/14 14:12:41;;;;;;;3.33;1.00;;;;;;;;;;4957061;28;20515;-75
2022/06/14 14:15:15;;;;;;;3.90;1.20;;;;;;;;;;4942872;28;20106;-75
2022/06/14 14:17:57;;;;;;;3.90;1.33;;;;;;;;;;4942545;28;20066;-75
2022/06/14 14:20:38;;;;;;;2.53;1.23;;;;;;;;;;4975604;28;20061;-75
2022/06/14 14:23:07;;;;;;;4.78;1.30;;;;;;;;;;4976071;28;20061;-75
2022/06/14 14:25:38;;;;;;;2.58;1.30;;;;;;;;;;4958427;28;20047;-77
2022/06/14 14:28:23;;;;;;;3.50;1.20;;;;;;;;;;4927644;29;20035;-75
2022/06/14 14:30:49;;;;;;;3.97;1.40;;;;;;;;;;4937578;28;20125;-76
2022/06/14 14:33:36;;;;;;;2.53;1.20;;;;;;;;;;4957559;28;20039;-71
2022/06/14 14:36:10;;;;;;;2.80;1.10;;;;;;;;;;4937149;28;20046;-70
2022/06/14 14:38:54;;;;;;;3.55;1.15;;;;;;;;;;4955145;28;20511;-69
2022/06/14 14:41:32;;;;;;;4.05;1.33;;;;;;;;;;4938225;28;20039;-70
2022/06/14 14:44:04;;;;;;;3.45;1.27;;;;;;;;;;4956634;28;20119;-75
2022/06/14 14:46:32;;;;;;;4.00;1.30;;;;;;;;;;4956827;28;20046;-76
2022/06/14 14:49:02;;;;;;;4.85;1.70;;;;;;;;;;4949831;28;20039;-75
2022/06/14 14:51:36;;;;;;;2.63;1.13;;;;;;;;;;4956231;28;20097;-78
2022/06/14 14:54:05;;;;;;;4.40;1.35;;;;;;;;;;4974949;28;20039;-79
2022/06/14 14:56:36;;;;;;;3.75;1.60;;;;;;;;;;4956963;28;20073;-79
2022/06/14 14:59:12;;;;;;;2.33;1.10;;;;;;;;;;4954583;28;20053;-79
2022/06/14 15:07:37;;;;;;;2.53;1.05;;;;;;;;;;4949544;28;20046;-72
2022/06/14 15:10:08;;;;;;;2.88;1.20;;;;;;;;;;4956289;28;20068;-72
2022/06/14 15:12:37;;;;;;;4.82;1.20;;;;;;;;;;4955297;28;20039;-73
2022/06/14 15:15:14;;;;;;;3.15;1.20;;;;;;;;;;4954737;28;20035;-71
2022/06/14 15:20:27;;;;;;;3.17;1.20;;;;;;;;;;4957361;28;20054;-70
2022/06/14 15:22:53;;;;;;;3.15;1.17;;;;;;;;;;4971715;28;20051;-71
2022/06/14 15:25:21;;;;;;;2.85;1.33;;;;;;;;;;4973806;28;20081;-71
2022/06/14 15:27:50;;;;;;;4.55;1.40;;;;;;;;;;4971484;28;20074;-72
2022/06/14 15:30:36;;;;;;;5.13;1.30;;;;;;;;;;4969599;28;20043;-70
2022/06/14 15:33:12;;;;;;;3.60;1.33;;;;;;;;;;4971470;28;20042;-69
2022/06/14 15:35:47;;;;;;;5.32;2.08;;;;;;;;;;4970551;28;20043;-70
2022/06/14 15:38:15;;;;;;;3.20;1.20;;;;;;;;;;4969402;28;20497;-74
2022/06/14 15:40:41;;;;;;;2.65;1.20;;;;;;;;;;4965519;28;20444;-75
2022/06/14 15:43:29;;;;;;;2.65;1.20;;;;;;;;;;5089729;27;20471;-72
2022/06/14 15:45:56;;;;;;;3.95;1.38;;;;;;;;;;5072125;28;20129;-72
2022/06/14 15:48:31;;;;;;;3.50;1.20;;;;;;;;;;5079726;28;20043;-72
2022/06/14 15:51:02;;;;;;;2.60;1.10;;;;;;;;;;5083699;28;20048;-73
2022/06/14 15:53:44;;;;;;;2.72;1.10;;;;;;;;;;5081970;28;20052;-72
2022/06/14 15:56:29;;;;;;;3.95;1.48;;;;;;;;;;5070007;28;20170;-72